Saguache, CO

3:34 PM MST on February 21, 2017 (GMT -0700)
Saguache

Weather History for K04V - November, 2012

Change the Weather History Date:

Monday, November 5, 2012

  Actual Average (KALS) Record (KALS)
Temperature  
Mean Temperature 48 °F -  
Max Temperature 62 °F 53 °F 66 °F (1977)
Min Temperature 33 °F 15 °F -4 °F (1991)
Degree Days  
Heating Degree Days 18    
Moisture  
Dew Point 21 °F    
Average Humidity 36    
Maximum Humidity 56    
Minimum Humidity 19    
Precipitation  
Precipitation 0.00 in - - ()
Sea Level Pressure  
Sea Level Pressure 30.37 in    
Wind  
Wind Speed 14 mph (NW)    
Max Wind Speed 24 mph    
Max Gust Speed 34 mph    
Visibility 10 miles    
Events      
Averages and records for this station are not official NWS values.
T = Trace of Precipitation, MM = Missing Value Source: NWS Daily Summary

Daily Weather History Graph

Daily Weather History Graph

Search for Another Location

Airport or City:

Trip Planner

Search our weather history database for the weather conditions in past years. The results will help you decide how hot, cold, wet, or windy it might be!

Date:

Astronomy

Nov. 05, 2012 Rise Set
Actual Time 6:35 AM MST 5:00 PM MST
Civil Twilight 6:07 AM MST 5:28 PM MST
Nautical Twilight 5:36 AM MST 5:59 PM MST
Astronomical Twilight 5:05 AM MST 6:30 PM MST
Moon 10:40 PM MST (11/5) 11:56 AM MST (11/5)
Length of Visible Light 11h 20m
Length of Day
10h 25m
Waning Gibbous, 62% of the Moon is Illuminated
Nov 5
Waning Gibbous
Nov 6
Last Quarter
Nov 13
New
Nov 20
First Quarter
Nov 28
Full

Hourly Weather History & Observations

Time (MST) Temp. Windchill Dew Point Humidity Pressure Visibility Wind Dir Wind Speed Gust Speed Precip Events Conditions
12:15 AM 41.0 °F 36.4 °F 15.8 °F 36% 30.41 in 10.0 mi West 6.9 mph 16.1 mph N/A   Clear
12:35 AM 41.0 °F 34.7 °F 15.8 °F 36% 30.41 in 10.0 mi West 10.4 mph 16.1 mph N/A   Clear
12:55 AM 39.2 °F 33.0 °F 15.8 °F 39% 30.40 in 10.0 mi NW 9.2 mph - N/A   Clear
1:15 AM 39.2 °F 35.9 °F 15.8 °F 39% 30.40 in 10.0 mi NNW 4.6 mph - N/A   Clear
1:35 AM 41.0 °F 33.1 °F 17.6 °F 39% 30.40 in 10.0 mi NW 15.0 mph - N/A   Clear
1:55 AM 41.0 °F 32.8 °F 17.6 °F 39% 30.39 in 10.0 mi NW 16.1 mph 21.9 mph N/A   Clear
2:14 AM 41.0 °F 31.6 °F 17.6 °F 39% 30.39 in 10.0 mi NW 20.7 mph 26.5 mph N/A   Clear
2:35 AM 37.4 °F 27.8 °F 15.8 °F 41% 30.38 in 10.0 mi NW 17.3 mph - N/A   Clear
2:55 AM 37.4 °F 27.5 °F 17.6 °F 45% 30.38 in 10.0 mi NW 18.4 mph - N/A   Clear
3:15 AM 37.4 °F 26.6 °F 17.6 °F 45% 30.38 in 10.0 mi NW 21.9 mph 25.3 mph N/A   Clear
3:35 AM 37.4 °F 26.9 °F 17.6 °F 45% 30.37 in 10.0 mi NW 20.7 mph - N/A   Clear
3:55 AM 37.4 °F 27.8 °F 17.6 °F 45% 30.37 in 10.0 mi NW 17.3 mph - N/A   Clear
4:15 AM 35.6 °F 26.2 °F 17.6 °F 48% 30.38 in 10.0 mi NW 15.0 mph 19.6 mph N/A   Clear
4:35 AM 37.4 °F 26.9 °F 19.4 °F 48% 30.38 in 10.0 mi WNW 20.7 mph 24.2 mph N/A   Clear
4:54 AM 35.6 °F 26.2 °F 17.6 °F 48% 30.40 in 10.0 mi NW 15.0 mph - N/A   Clear
5:15 AM 35.6 °F 26.2 °F 17.6 °F 48% 30.39 in 10.0 mi NW 15.0 mph - N/A   Clear
5:35 AM 35.6 °F 26.2 °F 19.4 °F 52% 30.40 in 10.0 mi NW 15.0 mph - N/A   Clear
5:55 AM 35.6 °F 27.5 °F 19.4 °F 52% 30.39 in 10.0 mi NW 11.5 mph - N/A   Clear
6:15 AM 35.6 °F 28.0 °F 19.4 °F 52% 30.39 in 10.0 mi NW 10.4 mph - N/A   Clear
6:35 AM 33.8 °F 24.8 °F 19.4 °F 56% 30.40 in 10.0 mi NNW 12.7 mph - N/A   Clear
6:55 AM 35.6 °F 28.0 °F 21.2 °F 56% 30.40 in 10.0 mi NW 10.4 mph - N/A   Clear
7:15 AM 37.4 °F 30.3 °F 21.2 °F 52% 30.40 in 10.0 mi NNW 10.4 mph - N/A   Clear
7:35 AM 41.0 °F 33.9 °F 21.2 °F 45% 30.40 in 10.0 mi NNW 12.7 mph - N/A   Clear
7:55 AM 44.6 °F 38.4 °F 21.2 °F 39% 30.41 in 10.0 mi NW 12.7 mph - N/A   Clear
8:14 AM 46.4 °F 40.7 °F 21.2 °F 37% 30.41 in 10.0 mi NW 12.7 mph - N/A   Clear
8:34 AM 44.6 °F 38.4 °F 23.0 °F 43% 30.42 in 10.0 mi NW 12.7 mph - N/A   Clear
8:55 AM 48.2 °F - 23.0 °F 37% 30.42 in 10.0 mi NNW 13.8 mph 19.6 mph N/A   Clear
9:15 AM 50.0 °F - 23.0 °F 35% 30.42 in 10.0 mi NW 16.1 mph 23.0 mph N/A   Clear
9:35 AM 53.6 °F - 24.8 °F 33% 30.42 in 10.0 mi NNW 19.6 mph 24.2 mph N/A   Clear
9:55 AM 53.6 °F - 23.0 °F 30% 30.41 in 10.0 mi NNW 17.3 mph 25.3 mph N/A   Clear
10:15 AM 55.4 °F - 23.0 °F 29% 30.39 in 10.0 mi NNW 24.2 mph 34.5 mph N/A   Clear
10:35 AM 55.4 °F - 24.8 °F 31% 30.39 in 10.0 mi NNW 19.6 mph 29.9 mph N/A   Clear
10:55 AM 55.4 °F - 23.0 °F 29% 30.39 in 10.0 mi NNW 19.6 mph 24.2 mph N/A   Clear
11:15 AM 59.0 °F - 24.8 °F 27% 30.40 in 10.0 mi NNW 18.4 mph 23.0 mph N/A   Clear
11:35 AM 59.0 °F - 23.0 °F 25% 30.38 in 10.0 mi NNW 11.5 mph 24.2 mph N/A   Clear
11:55 AM 59.0 °F - 23.0 °F 25% 30.37 in 10.0 mi NNW 15.0 mph 21.9 mph N/A   Clear
12:15 PM 60.8 °F - 23.0 °F 23% 30.35 in 10.0 mi NNW 12.7 mph 21.9 mph N/A   Clear
12:35 PM 60.8 °F - 23.0 °F 23% 30.34 in 10.0 mi WNW 8.1 mph 20.7 mph N/A   Clear
12:55 PM 62.6 °F - 21.2 °F 20% 30.33 in 10.0 mi NNW 13.8 mph 21.9 mph N/A   Clear
1:15 PM 62.6 °F - 21.2 °F 20% 30.33 in 10.0 mi NNW 12.7 mph 21.9 mph N/A   Clear
1:35 PM 62.6 °F - 21.2 °F 20% 30.31 in 10.0 mi NW 18.4 mph 25.3 mph N/A   Clear
1:55 PM 60.8 °F - 19.4 °F 20% 30.31 in 10.0 mi NW 19.6 mph 25.3 mph N/A   Clear
2:14 PM 62.6 °F - 21.2 °F 20% 30.31 in 10.0 mi NW 13.8 mph 24.2 mph N/A   Clear
2:55 PM 62.6 °F - 19.4 °F 19% 30.31 in 10.0 mi NW 19.6 mph 25.3 mph N/A   Clear
3:15 PM 60.8 °F - 19.4 °F 20% 30.31 in 10.0 mi NW 12.7 mph 25.3 mph N/A   Clear
3:35 PM 60.8 °F - 19.4 °F 20% 30.31 in 10.0 mi NNW 15.0 mph 23.0 mph N/A   Clear
3:55 PM 60.8 °F - 19.4 °F 20% 30.29 in 10.0 mi NNW 15.0 mph 21.9 mph N/A   Clear
4:15 PM 60.8 °F - 21.2 °F 22% 30.31 in 10.0 mi NNW 16.1 mph 21.9 mph N/A   Clear
4:34 PM 59.0 °F - 21.2 °F 23% 30.31 in 10.0 mi North 11.5 mph 18.4 mph N/A   Clear
4:55 PM 59.0 °F - 21.2 °F 23% 30.31 in 10.0 mi NNW 16.1 mph - N/A   Clear
5:15 PM 55.4 °F - 21.2 °F 26% 30.32 in 10.0 mi NNW 10.4 mph 17.3 mph N/A   Clear
5:35 PM 53.6 °F - 21.2 °F 28% 30.32 in 10.0 mi NW 15.0 mph - N/A   Clear
5:55 PM 53.6 °F - 21.2 °F 28% 30.32 in 10.0 mi NW 18.4 mph 24.2 mph N/A   Clear
6:15 PM 53.6 °F - 23.0 °F 30% 30.33 in 10.0 mi NW 15.0 mph 23.0 mph N/A   Clear
6:35 PM 53.6 °F - 23.0 °F 30% 30.34 in 10.0 mi NW 17.3 mph 20.7 mph N/A   Clear
6:55 PM 50.0 °F - 23.0 °F 35% 30.35 in 10.0 mi NW 11.5 mph - N/A   Clear
7:15 PM 50.0 °F - 23.0 °F 35% 30.35 in 10.0 mi WNW 16.1 mph - N/A   Clear
7:35 PM 50.0 °F - 23.0 °F 35% 30.35 in 10.0 mi NW 16.1 mph - N/A   Clear
7:55 PM 48.2 °F - 23.0 °F 37% 30.35 in 10.0 mi NW 15.0 mph - N/A   Clear
8:15 PM 46.4 °F 40.7 °F 23.0 °F 40% 30.36 in 10.0 mi NNW 12.7 mph - N/A   Clear
8:35 PM 46.4 °F 39.5 °F 23.0 °F 40% 30.36 in 10.0 mi NW 17.3 mph - N/A   Clear
8:54 PM 46.4 °F 41.1 °F 23.0 °F 40% 30.37 in 10.0 mi NW 11.5 mph - N/A   Clear
9:15 PM 44.6 °F 38.1 °F 23.0 °F 43% 30.38 in 10.0 mi WNW 13.8 mph - N/A   Clear
9:34 PM 46.4 °F 41.1 °F 23.0 °F 40% 30.38 in 10.0 mi WNW 11.5 mph - N/A   Clear
9:54 PM 46.4 °F 41.1 °F 23.0 °F 40% 30.38 in 10.0 mi WNW 11.5 mph - N/A   Clear
10:15 PM 46.4 °F 41.1 °F 23.0 °F 40% 30.38 in 10.0 mi WNW 11.5 mph - N/A   Clear
10:35 PM 44.6 °F 37.8 °F 23.0 °F 43% 30.37 in 10.0 mi NW 15.0 mph - N/A   Clear
10:55 PM 46.4 °F 38.5 °F 23.0 °F 40% 30.36 in 10.0 mi NNW 21.9 mph - N/A   Clear
11:15 PM 46.4 °F 39.8 °F 23.0 °F 40% 30.37 in 10.0 mi NNW 16.1 mph - N/A   Clear
11:35 PM 46.4 °F 39.5 °F 23.0 °F 40% 30.37 in 10.0 mi NW 17.3 mph - N/A   Clear
11:55 PM 44.6 °F 36.6 °F 23.0 °F 43% 30.38 in 10.0 mi NW 19.6 mph - N/A   Clear